createdAt,value
2022-10-11T00:00:14.125Z,101044.69
2022-10-11T00:06:59.640Z,101053.38
2022-10-11T00:13:47.645Z,101058.03
2022-10-11T00:20:33.061Z,101067.22
2022-10-11T00:27:18.529Z,101064.44
2022-10-11T00:34:06.482Z,101074.63
2022-10-11T00:40:51.812Z,101082.50
2022-10-11T00:47:37.202Z,101087.97
2022-10-11T00:54:29.910Z,101084.47
2022-10-11T01:01:15.722Z,101085.16
2022-10-11T01:08:03.604Z,101089.34
2022-10-11T01:15:12.000Z,101098.16
2022-10-11T01:22:11.967Z,101099.53
2022-10-11T01:29:11.638Z,101107.16
2022-10-11T01:36:09.843Z,101105.97
2022-10-11T01:42:57.319Z,100999.66
2022-10-11T01:49:42.824Z,101125.28
2022-10-11T01:57:03.472Z,101129.13
2022-10-11T02:03:57.409Z,101147.25
2022-10-11T02:10:49.299Z,101141.75
2022-10-11T02:17:42.244Z,101060.63
2022-10-11T02:24:33.376Z,101145.84
2022-10-11T02:31:21.440Z,101131.63
2022-10-11T02:38:17.771Z,101150.63
2022-10-11T03:05:51.789Z,101185.09
2022-10-11T03:12:37.502Z,101191.63
2022-10-11T03:19:22.983Z,101198.59
2022-10-11T03:26:10.995Z,101197.94
2022-10-11T03:32:56.427Z,101203.81
2022-10-11T03:39:41.972Z,101208.84
2022-10-11T03:46:29.909Z,101211.63
2022-10-11T03:53:15.577Z,101220.75
2022-10-11T04:00:00.913Z,101225.47
2022-10-11T04:06:53.597Z,101230.66
2022-10-11T04:13:39.684Z,101228.47
2022-10-11T04:20:25.133Z,101236.75
2022-10-11T04:27:13.115Z,101240.31
2022-10-11T04:33:58.429Z,101242.84
2022-10-11T04:40:43.761Z,101255.84
2022-10-11T04:47:31.793Z,101249.91
2022-10-11T04:54:17.781Z,101272.06
2022-10-11T05:01:04.808Z,101244.22
2022-10-11T05:07:52.764Z,101280.63
2022-10-11T05:14:38.334Z,101289.25
2022-10-11T05:21:26.595Z,101304.91
2022-10-11T05:28:14.607Z,101308.81
2022-10-11T05:35:00.431Z,101322.47
2022-10-11T05:41:47.576Z,101330.03
2022-10-11T05:48:36.106Z,101299.63
2022-10-11T05:55:21.435Z,101338.13
2022-10-11T06:02:06.917Z,101350.13
2022-10-11T06:08:54.969Z,101351.13
2022-10-11T06:15:42.823Z,101366.97
2022-10-11T06:22:28.163Z,101377.94
2022-10-11T06:29:16.074Z,101385.00
2022-10-11T06:36:02.872Z,101392.81
2022-10-11T06:42:51.745Z,101407.63
2022-10-11T06:49:39.884Z,101403.25
2022-10-11T06:56:25.627Z,101392.44
2022-10-11T07:03:11.766Z,101421.81
2022-10-11T07:09:59.843Z,101437.38
2022-10-11T07:16:45.168Z,101441.88
2022-10-11T07:23:30.476Z,101443.09
2022-10-11T07:30:18.674Z,101417.78
2022-10-11T07:37:06.867Z,101454.75
2022-10-11T07:43:52.313Z,101461.44
2022-10-11T07:50:40.669Z,101441.91
2022-10-11T07:57:26.080Z,101449.00
2022-10-11T08:04:12.525Z,101444.06
2022-10-11T08:11:00.750Z,101445.16
2022-10-11T08:17:46.356Z,101458.13
2022-10-11T08:24:37.326Z,101468.56
2022-10-11T08:31:26.530Z,101465.59
2022-10-11T08:38:11.945Z,101466.31
2022-10-11T08:45:10.979Z,101456.38
2022-10-11T08:52:04.714Z,101471.53
2022-10-11T08:58:57.651Z,101463.25
2022-10-11T09:06:00.935Z,101468.56
2022-10-11T09:12:59.988Z,101467.44
2022-10-11T09:20:09.754Z,101462.25
2022-10-11T09:27:00.943Z,101465.06
2022-10-11T09:33:52.443Z,101458.53
2022-10-11T09:40:52.934Z,101456.19
2022-10-11T09:47:38.337Z,101469.72
2022-10-11T09:54:42.044Z,101411.41
2022-10-11T10:01:30.917Z,101461.03
2022-10-11T10:08:27.646Z,101464.53
2022-10-11T10:15:23.125Z,101423.22
2022-10-11T10:22:08.821Z,101413.69
2022-10-11T10:29:05.948Z,101451.53
2022-10-11T10:35:58.256Z,101444.75
2022-10-11T10:42:43.853Z,101447.81
2022-10-11T10:49:54.749Z,101419.25
2022-10-11T10:56:50.900Z,101442.91
2022-10-11T11:03:44.685Z,101436.78
2022-10-11T11:10:37.396Z,101421.56
2022-10-11T11:17:39.107Z,101431.44
2022-10-11T11:24:49.349Z,101424.34
2022-10-11T11:32:11.600Z,101412.84
2022-10-11T11:39:05.257Z,101410.28
2022-10-11T11:45:58.173Z,101407.06
2022-10-11T11:52:48.612Z,101405.78
2022-10-11T11:59:43.507Z,101405.13
2022-10-11T12:06:33.896Z,101403.72
2022-10-11T12:13:29.720Z,101296.03
2022-10-11T12:20:29.453Z,101384.66
2022-10-11T12:27:40.034Z,101375.19
2022-10-11T12:34:38.618Z,101359.66
2022-10-11T12:41:53.802Z,101357.69
2022-10-11T12:48:50.782Z,101353.59
2022-10-11T12:55:52.012Z,101352.28
2022-10-11T13:02:45.211Z,101302.97
2022-10-11T13:09:34.428Z,101337.56
2022-10-11T13:16:23.857Z,101222.31
2022-10-11T13:23:27.124Z,101338.84
2022-10-11T13:30:21.735Z,101316.78
2022-10-11T13:37:07.868Z,101328.69
2022-10-11T13:43:56.047Z,101325.38
2022-10-11T13:50:46.171Z,101313.63
2022-10-11T13:57:41.161Z,101305.78
2022-10-11T14:04:30.228Z,101317.38
2022-10-11T14:11:17.420Z,101315.88
2022-10-11T14:18:05.485Z,101310.31
2022-10-11T14:24:53.483Z,101306.22
2022-10-11T14:31:41.676Z,101276.41
2022-10-11T14:38:27.521Z,101315.09
2022-10-11T14:45:15.750Z,101306.25
2022-10-11T14:52:02.320Z,101288.25
2022-10-11T14:58:48.053Z,101305.53
2022-10-11T15:05:36.679Z,101300.94
2022-10-11T15:12:22.294Z,101130.81
2022-10-11T15:19:07.863Z,101305.78
2022-10-11T15:25:55.821Z,101298.25
2022-10-11T15:32:41.197Z,101302.69
2022-10-11T15:39:31.889Z,101231.56
2022-10-11T15:46:23.194Z,101290.25
2022-10-11T15:53:11.738Z,101299.38
2022-10-11T15:59:57.071Z,101298.50
2022-10-11T16:06:45.188Z,101216.16
2022-10-11T16:13:30.605Z,101284.13
2022-10-11T16:20:18.699Z,101293.88
2022-10-11T16:27:06.745Z,101294.34
2022-10-11T16:33:53.656Z,101298.91
2022-10-11T16:40:41.115Z,101299.72
2022-10-11T16:47:29.185Z,101315.75
2022-10-11T16:54:19.983Z,101313.78
2022-10-11T17:01:06.570Z,101304.47
2022-10-11T17:07:54.372Z,101303.66
2022-10-11T17:14:40.797Z,101315.81
2022-10-11T17:21:26.431Z,101327.09
2022-10-11T17:28:15.108Z,101312.25
2022-10-11T17:35:02.900Z,101325.41
2022-10-11T17:41:49.324Z,101317.63
2022-10-11T17:48:39.410Z,101308.88
2022-10-11T17:55:24.845Z,101311.03
2022-10-11T18:02:12.084Z,101310.75
2022-10-11T18:09:03.453Z,101310.44
2022-10-11T18:15:53.387Z,101322.41
2022-10-11T18:22:39.112Z,101275.06
2022-10-11T18:29:27.109Z,101318.34
2022-10-11T18:36:13.797Z,101314.41
2022-10-11T18:42:59.719Z,101328.28
2022-10-11T18:49:47.948Z,101323.19
2022-10-11T18:56:37.016Z,101322.34
2022-10-11T19:03:22.556Z,101328.38
2022-10-11T19:10:11.957Z,101314.03
2022-10-11T19:16:59.016Z,101312.34
2022-10-11T19:23:46.921Z,101315.13
2022-10-11T19:30:35.440Z,101308.38
2022-10-11T19:37:21.525Z,101269.81
2022-10-11T19:44:07.654Z,101304.13
2022-10-11T19:50:55.700Z,101299.69
2022-10-11T19:57:41.064Z,101298.34
2022-10-11T20:04:51.567Z,101303.53
2022-10-11T20:11:34.476Z,101306.06
2022-10-11T20:18:19.856Z,101318.91
2022-10-11T20:25:05.328Z,101305.13
2022-10-11T20:31:53.403Z,101319.13
2022-10-11T20:38:41.816Z,101320.22
2022-10-11T20:45:27.205Z,101298.50
2022-10-11T20:52:15.172Z,101321.34
2022-10-11T20:59:01.910Z,101224.22
2022-10-11T21:05:47.329Z,101314.81
2022-10-11T21:12:35.723Z,101316.81
2022-10-11T21:19:21.299Z,101295.88
2022-10-11T21:26:08.716Z,101275.00
2022-10-11T21:32:57.652Z,101312.38
2022-10-11T21:39:43.005Z,101307.34
2022-10-11T21:53:39.135Z,101293.31
2022-10-11T22:00:24.818Z,101259.91
2022-10-11T22:07:10.177Z,101300.91
2022-10-11T22:13:58.084Z,101223.88
2022-10-11T22:20:43.478Z,101299.38
2022-10-11T22:27:28.956Z,101293.97
2022-10-11T22:34:16.977Z,101280.03
2022-10-11T22:41:02.740Z,101280.47
2022-10-11T22:47:48.109Z,101272.59
2022-10-11T22:54:36.081Z,101269.84
2022-10-11T23:01:21.384Z,101272.47
2022-10-11T23:08:06.800Z,101283.63
2022-10-11T23:14:54.874Z,101254.03
2022-10-11T23:21:40.221Z,101264.66
2022-10-11T23:28:25.570Z,101262.75
2022-10-11T23:35:13.677Z,101259.75
2022-10-11T23:41:59.468Z,101270.41
2022-10-11T23:48:44.966Z,101251.13
2022-10-11T23:55:32.911Z,101262.66
